sensor_id;sensor_type;location;lat;lon;timestamp;pressure;altitude;pressure_sealevel;temperature;humidity
60715;BME280;46564;53.096;8.246;2023-02-14T00:03:57;103509.28;;;0.63;nan
60715;BME280;46564;53.096;8.246;2023-02-14T00:09:01;103510.63;;;0.50;nan
60715;BME280;46564;53.096;8.246;2023-02-14T00:14:03;103506.97;;;0.40;nan
60715;BME280;46564;53.096;8.246;2023-02-14T00:19:24;103509.34;;;0.29;nan
60715;BME280;46564;53.096;8.246;2023-02-14T00:24:26;103501.03;;;0.32;nan
60715;BME280;46564;53.096;8.246;2023-02-14T00:29:30;103500.88;;;0.30;nan
60715;BME280;46564;53.096;8.246;2023-02-14T00:34:32;103496.31;;;0.28;nan
60715;BME280;46564;53.096;8.246;2023-02-14T00:39:34;103491.75;;;0.25;nan
60715;BME280;46564;53.096;8.246;2023-02-14T00:44:35;103483.88;;;0.24;nan
60715;BME280;46564;53.096;8.246;2023-02-14T00:49:38;103485.97;;;0.19;nan
60715;BME280;46564;53.096;8.246;2023-02-14T00:54:40;103483.19;;;0.09;nan
60715;BME280;46564;53.096;8.246;2023-02-14T00:59:41;103492.88;;;0.03;nan
60715;BME280;46564;53.096;8.246;2023-02-14T01:04:44;103498.66;;;0.00;nan
60715;BME280;46564;53.096;8.246;2023-02-14T01:09:46;103504.97;;;-0.05;nan
60715;BME280;46564;53.096;8.246;2023-02-14T01:14:48;103500.09;;;-0.11;nan
60715;BME280;46564;53.096;8.246;2023-02-14T01:19:53;103495.06;;;-0.18;nan
60715;BME280;46564;53.096;8.246;2023-02-14T01:24:55;103492.72;;;-0.32;nan
60715;BME280;46564;53.096;8.246;2023-02-14T01:29:56;103494.91;;;-0.44;nan
60715;BME280;46564;53.096;8.246;2023-02-14T01:34:58;103487.69;;;-0.56;nan
60715;BME280;46564;53.096;8.246;2023-02-14T01:40:00;103485.25;;;-0.63;nan
60715;BME280;46564;53.096;8.246;2023-02-14T01:45:13;103485.84;;;-0.65;nan
60715;BME280;46564;53.096;8.246;2023-02-14T01:50:22;103480.53;;;-0.67;nan
60715;BME280;46564;53.096;8.246;2023-02-14T01:55:30;103477.63;;;-0.70;nan
60715;BME280;46564;53.096;8.246;2023-02-14T02:00:32;103468.84;;;-0.72;nan
60715;BME280;46564;53.096;8.246;2023-02-14T02:05:57;103456.25;;;-0.78;nan
60715;BME280;46564;53.096;8.246;2023-02-14T02:11:00;103454.25;;;-0.80;nan
60715;BME280;46564;53.096;8.246;2023-02-14T02:16:11;103455.28;;;-0.87;nan
60715;BME280;46564;53.096;8.246;2023-02-14T02:21:56;103455.38;;;-0.94;nan
60715;BME280;46564;53.096;8.246;2023-02-14T02:33:13;103447.91;;;-1.00;nan
60715;BME280;46564;53.096;8.246;2023-02-14T02:38:45;103441.38;;;-1.05;nan
60715;BME280;46564;53.096;8.246;2023-02-14T02:49:31;103442.19;;;-1.13;nan
60715;BME280;46564;53.096;8.246;2023-02-14T02:54:57;103439.69;;;-1.20;nan
60715;BME280;46564;53.096;8.246;2023-02-14T03:00:03;103435.16;;;-1.23;nan
60715;BME280;46564;53.096;8.246;2023-02-14T03:05:06;103427.69;;;-1.29;nan
60715;BME280;46564;53.096;8.246;2023-02-14T03:20:44;103409.88;;;-1.27;nan
60715;BME280;46564;53.096;8.246;2023-02-14T03:26:01;103406.38;;;-1.28;nan
60715;BME280;46564;53.096;8.246;2023-02-14T03:31:28;103402.72;;;-1.30;nan
60715;BME280;46564;53.096;8.246;2023-02-14T03:36:47;103400.72;;;-1.32;nan
60715;BME280;46564;53.096;8.246;2023-02-14T03:42:08;103400.06;;;-1.38;nan
60715;BME280;46564;53.096;8.246;2023-02-14T03:47:20;103397.50;;;-1.38;nan
60715;BME280;46564;53.096;8.246;2023-02-14T03:52:24;103388.97;;;-1.46;nan
60715;BME280;46564;53.096;8.246;2023-02-14T03:57:54;103382.94;;;-1.47;nan
60715;BME280;46564;53.096;8.246;2023-02-14T04:03:00;103389.31;;;-1.43;nan
60715;BME280;46564;53.096;8.246;2023-02-14T04:08:02;103392.88;;;-1.50;nan
60715;BME280;46564;53.096;8.246;2023-02-14T04:13:04;103392.41;;;-1.54;nan
60715;BME280;46564;53.096;8.246;2023-02-14T04:18:06;103383.44;;;-1.58;nan
60715;BME280;46564;53.096;8.246;2023-02-14T04:23:26;103380.38;;;-1.63;nan
60715;BME280;46564;53.096;8.246;2023-02-14T04:28:27;103384.44;;;-1.65;nan
60715;BME280;46564;53.096;8.246;2023-02-14T04:33:29;103377.31;;;-1.67;nan
60715;BME280;46564;53.096;8.246;2023-02-14T04:38:31;103378.03;;;-1.68;nan
60715;BME280;46564;53.096;8.246;2023-02-14T04:43:33;103373.66;;;-1.69;nan
60715;BME280;46564;53.096;8.246;2023-02-14T04:51:46;103375.97;;;-1.80;98.35
60715;BME280;46564;53.096;8.246;2023-02-14T04:56:47;103361.13;;;-1.82;98.53
60715;BME280;46564;53.096;8.246;2023-02-14T05:01:49;103360.41;;;-1.81;98.43
60715;BME280;46564;53.096;8.246;2023-02-14T05:06:51;103358.72;;;-1.81;98.57
60715;BME280;46564;53.096;8.246;2023-02-14T05:11:52;103361.47;;;-1.79;98.67
60715;BME280;46564;53.096;8.246;2023-02-14T05:16:54;103350.84;;;-1.82;98.57
60715;BME280;46564;53.096;8.246;2023-02-14T05:21:56;103350.53;;;-1.85;98.41
60715;BME280;46564;53.096;8.246;2023-02-14T05:26:57;103345.06;;;-1.88;98.40
60715;BME280;46564;53.096;8.246;2023-02-14T05:31:59;103336.28;;;-1.90;98.24
60715;BME280;46564;53.096;8.246;2023-02-14T05:37:01;103334.13;;;-1.94;98.71
60715;BME280;46564;53.096;8.246;2023-02-14T05:42:03;103334.88;;;-1.96;98.48
60715;BME280;46564;53.096;8.246;2023-02-14T05:47:05;103331.97;;;-1.99;98.65
60715;BME280;46564;53.096;8.246;2023-02-14T05:52:06;103332.53;;;-2.01;98.64
60715;BME280;46564;53.096;8.246;2023-02-14T05:57:08;103330.22;;;-2.07;98.68
60715;BME280;46564;53.096;8.246;2023-02-14T06:02:09;103338.84;;;-2.06;98.57
60715;BME280;46564;53.096;8.246;2023-02-14T06:07:11;103329.47;;;-2.06;98.76
60715;BME280;46564;53.096;8.246;2023-02-14T06:12:13;103335.78;;;-2.11;98.26
60715;BME280;46564;53.096;8.246;2023-02-14T06:17:14;103339.84;;;-2.13;98.76
60715;BME280;46564;53.096;8.246;2023-02-14T06:22:17;103339.06;;;-2.12;98.50
60715;BME280;46564;53.096;8.246;2023-02-14T06:27:18;103346.38;;;-2.08;98.72
60715;BME280;46564;53.096;8.246;2023-02-14T06:32:20;103345.53;;;-2.16;98.56
60715;BME280;46564;53.096;8.246;2023-02-14T06:37:21;103345.78;;;-2.21;98.47
60715;BME280;46564;53.096;8.246;2023-02-14T06:42:24;103355.13;;;-2.22;98.49
60715;BME280;46564;53.096;8.246;2023-02-14T06:47:25;103356.44;;;-2.25;98.34
60715;BME280;46564;53.096;8.246;2023-02-14T06:52:27;103354.63;;;-2.26;98.81
60715;BME280;46564;53.096;8.246;2023-02-14T06:57:28;103357.53;;;-2.23;98.57
60715;BME280;46564;53.096;8.246;2023-02-14T07:02:30;103361.13;;;-2.14;98.29
60715;BME280;46564;53.096;8.246;2023-02-14T07:07:31;103347.72;;;-2.11;98.34
60715;BME280;46564;53.096;8.246;2023-02-14T07:12:33;103349.34;;;-2.12;98.45
60715;BME280;46564;53.096;8.246;2023-02-14T07:17:35;103346.53;;;-2.06;98.84
60715;BME280;46564;53.096;8.246;2023-02-14T07:22:37;103340.06;;;-2.03;98.53
60715;BME280;46564;53.096;8.246;2023-02-14T07:27:39;103335.31;;;-2.00;98.80
60715;BME280;46564;53.096;8.246;2023-02-14T07:32:41;103334.47;;;-1.91;98.54
60715;BME280;46564;53.096;8.246;2023-02-14T07:37:42;103338.69;;;-1.76;98.58
60715;BME280;46564;53.096;8.246;2023-02-14T07:42:54;103345.13;;;-1.64;98.46
60715;BME280;46564;53.096;8.246;2023-02-14T07:47:56;103348.59;;;-1.47;99.01
60715;BME280;46564;53.096;8.246;2023-02-14T07:53:02;103339.88;;;-1.25;98.90
60715;BME280;46564;53.096;8.246;2023-02-14T07:58:03;103341.91;;;-0.88;98.82
60715;BME280;46564;53.096;8.246;2023-02-14T08:03:05;57128.34;;;-147.53;100.00
60715;BME280;46564;53.096;8.246;2023-02-14T08:08:06;57128.34;;;-147.53;100.00
60715;BME280;46564;53.096;8.246;2023-02-14T08:13:08;57128.34;;;-147.53;100.00
60715;BME280;46564;53.096;8.246;2023-02-14T08:18:09;57128.34;;;-147.53;100.00
60715;BME280;46564;53.096;8.246;2023-02-14T08:23:11;57128.34;;;-147.53;100.00
60715;BME280;46564;53.096;8.246;2023-02-14T08:28:14;57128.34;;;-147.53;100.00
60715;BME280;46564;53.096;8.246;2023-02-14T08:33:16;57128.34;;;-147.53;100.00
60715;BME280;46564;53.096;8.246;2023-02-14T08:38:17;57128.34;;;-147.53;100.00
60715;BME280;46564;53.096;8.246;2023-02-14T08:43:19;57128.34;;;-147.53;100.00
60715;BME280;46564;53.096;8.246;2023-02-14T08:48:20;57128.34;;;-147.53;100.00
60715;BME280;46564;53.096;8.246;2023-02-14T08:53:23;57128.34;;;-147.53;100.00
60715;BME280;46564;53.096;8.246;2023-02-14T08:58:25;57128.34;;;-147.53;100.00
60715;BME280;46564;53.096;8.246;2023-02-14T09:03:26;57128.34;;;-147.53;100.00
60715;BME280;46564;53.096;8.246;2023-02-14T09:08:28;57128.34;;;-147.53;100.00
60715;BME280;46564;53.096;8.246;2023-02-14T09:13:31;57128.34;;;-147.53;100.00
60715;BME280;46564;53.096;8.246;2023-02-14T09:18:33;57128.34;;;-147.53;100.00
60715;BME280;46564;53.096;8.246;2023-02-14T09:23:35;57128.34;;;-147.53;100.00
60715;BME280;46564;53.096;8.246;2023-02-14T09:28:37;57128.34;;;-147.53;100.00
60715;BME280;46564;53.096;8.246;2023-02-14T09:33:39;57128.34;;;-147.53;100.00
60715;BME280;46564;53.096;8.246;2023-02-14T09:39:00;57128.34;;;-147.53;100.00
60715;BME280;46564;53.096;8.246;2023-02-14T09:44:12;57128.34;;;-147.53;100.00
60715;BME280;46564;53.096;8.246;2023-02-14T09:49:23;57128.34;;;-147.53;100.00
60715;BME280;46564;53.096;8.246;2023-02-14T09:54:32;57128.34;;;-147.53;100.00
60715;BME280;46564;53.096;8.246;2023-02-14T10:15:39;103347.72;;;2.46;99.50
60715;BME280;46564;53.096;8.246;2023-02-14T10:26:01;103333.75;;;2.92;99.63
60715;BME280;46564;53.096;8.246;2023-02-14T10:31:25;103327.63;;;3.21;99.54
60715;BME280;46564;53.096;8.246;2023-02-14T10:41:54;103326.09;;;3.73;99.80
60715;BME280;46564;53.096;8.246;2023-02-14T10:52:31;103320.09;;;4.36;99.76
60715;BME280;46564;53.096;8.246;2023-02-14T10:57:42;57128.34;;;-147.53;100.00
60715;BME280;46564;53.096;8.246;2023-02-14T11:02:46;103310.00;;;4.71;99.52
60715;BME280;46564;53.096;8.246;2023-02-14T11:07:51;103304.66;;;5.12;99.28
60715;BME280;46564;53.096;8.246;2023-02-14T11:12:53;103289.63;;;5.08;98.86
60715;BME280;46564;53.096;8.246;2023-02-14T11:18:16;103274.72;;;5.62;98.56
60715;BME280;46564;53.096;8.246;2023-02-14T11:23:22;103277.81;;;6.02;98.12
60715;BME280;46564;53.096;8.246;2023-02-14T11:28:25;103271.25;;;6.07;97.32
60715;BME280;46564;53.096;8.246;2023-02-14T11:33:38;103263.59;;;6.44;96.60
60715;BME280;46564;53.096;8.246;2023-02-14T11:38:40;103263.59;;;6.56;96.18
60715;BME280;46564;53.096;8.246;2023-02-14T11:43:47;103258.31;;;6.92;94.96
60715;BME280;46564;53.096;8.246;2023-02-14T11:49:00;103244.03;;;7.23;94.25
60715;BME280;46564;53.096;8.246;2023-02-14T11:54:02;103233.06;;;7.28;93.15
60715;BME280;46564;53.096;8.246;2023-02-14T11:59:10;103229.97;;;7.58;92.49
60715;BME280;46564;53.096;8.246;2023-02-14T12:04:16;103223.00;;;7.84;91.90
60715;BME280;46564;53.096;8.246;2023-02-14T12:14:27;103206.25;;;8.07;90.16
60715;BME280;46564;53.096;8.246;2023-02-14T12:19:47;103203.94;;;7.99;89.42
60715;BME280;46564;53.096;8.246;2023-02-14T12:30:19;103189.00;;;8.36;88.21
60715;BME280;46564;53.096;8.246;2023-02-14T12:46:10;103172.13;;;8.99;86.17
60715;BME280;46564;53.096;8.246;2023-02-14T12:51:29;103168.00;;;9.18;85.38
60715;BME280;46564;53.096;8.246;2023-02-14T13:07:42;103147.13;;;9.63;83.83
60715;BME280;46564;53.096;8.246;2023-02-14T13:23:00;103128.91;;;9.64;81.73
60715;BME280;46564;53.096;8.246;2023-02-14T13:28:06;103123.41;;;9.75;81.03
60715;BME280;46564;53.096;8.246;2023-02-14T13:38:21;103103.28;;;9.73;80.60
60715;BME280;46564;53.096;8.246;2023-02-14T13:43:46;103096.91;;;9.53;80.09
60715;BME280;46564;53.096;8.246;2023-02-14T13:54:40;103099.34;;;9.35;79.50
60715;BME280;46564;53.096;8.246;2023-02-14T13:59:43;103087.59;;;9.44;79.40
60715;BME280;46564;53.096;8.246;2023-02-14T14:04:45;103082.00;;;9.52;79.06
60715;BME280;46564;53.096;8.246;2023-02-14T14:20:29;103074.25;;;9.54;78.02
60715;BME280;46564;53.096;8.246;2023-02-14T14:25:40;103068.84;;;9.51;78.03
60715;BME280;46564;53.096;8.246;2023-02-14T14:30:42;103070.19;;;9.44;78.33
60715;BME280;46564;53.096;8.246;2023-02-14T14:36:00;103064.31;;;9.48;78.12
60715;BME280;46564;53.096;8.246;2023-02-14T14:41:03;103063.44;;;9.48;78.36
60715;BME280;46564;53.096;8.246;2023-02-14T14:46:08;103058.38;;;9.51;77.86
60715;BME280;46564;53.096;8.246;2023-02-14T14:51:32;103050.72;;;9.54;77.83
60715;BME280;46564;53.096;8.246;2023-02-14T14:56:37;103044.50;;;9.52;77.46
60715;BME280;46564;53.096;8.246;2023-02-14T15:01:46;103040.63;;;9.45;77.75
60715;BME280;46564;53.096;8.246;2023-02-14T15:06:48;103042.50;;;9.48;77.72
60715;BME280;46564;53.096;8.246;2023-02-14T15:11:51;103040.59;;;9.60;77.27
60715;BME280;46564;53.096;8.246;2023-02-14T15:17:21;103037.97;;;9.60;77.15
60715;BME280;46564;53.096;8.246;2023-02-14T15:22:27;103027.16;;;9.54;77.03
60715;BME280;46564;53.096;8.246;2023-02-14T15:27:38;103022.56;;;9.50;76.62
60715;BME280;46564;53.096;8.246;2023-02-14T15:32:40;103015.81;;;9.53;76.12
60715;BME280;46564;53.096;8.246;2023-02-14T15:37:43;103005.09;;;9.49;75.85
60715;BME280;46564;53.096;8.246;2023-02-14T15:42:46;103008.53;;;9.48;75.84
60715;BME280;46564;53.096;8.246;2023-02-14T15:47:51;103007.25;;;9.41;75.65
60715;BME280;46564;53.096;8.246;2023-02-14T15:53:43;103002.59;;;9.35;75.67
60715;BME280;46564;53.096;8.246;2023-02-14T15:58:21;103002.78;;;9.24;75.66
60715;BME280;46564;53.096;8.246;2023-02-14T16:03:31;103008.00;;;9.09;76.27
60715;BME280;46564;53.096;8.246;2023-02-14T16:08:38;102996.66;;;8.93;76.57
60715;BME280;46564;53.096;8.246;2023-02-14T16:13:43;102997.63;;;8.65;77.73
60715;BME280;46564;53.096;8.246;2023-02-14T16:18:50;102999.13;;;8.47;79.32
60715;BME280;46564;53.096;8.246;2023-02-14T16:29:16;102998.44;;;8.08;81.49
60715;BME280;46564;53.096;8.246;2023-02-14T16:34:18;102995.59;;;7.76;81.85
60715;BME280;46564;53.096;8.246;2023-02-14T16:39:21;103002.28;;;7.59;82.20
60715;BME280;46564;53.096;8.246;2023-02-14T16:44:26;103009.63;;;7.38;82.53
60715;BME280;46564;53.096;8.246;2023-02-14T16:49:28;103009.72;;;7.26;83.03
60715;BME280;46564;53.096;8.246;2023-02-14T16:54:30;103017.66;;;7.15;83.11
60715;BME280;46564;53.096;8.246;2023-02-14T16:59:32;103023.31;;;6.96;83.56
60715;BME280;46564;53.096;8.246;2023-02-14T17:04:34;103014.63;;;6.70;83.74
60715;BME280;46564;53.096;8.246;2023-02-14T17:09:39;103011.25;;;6.46;83.88
60715;BME280;46564;53.096;8.246;2023-02-14T17:14:46;103008.03;;;6.25;84.25
60715;BME280;46564;53.096;8.246;2023-02-14T17:19:49;102995.88;;;6.00;84.79
60715;BME280;46564;53.096;8.246;2023-02-14T17:24:53;103002.13;;;5.78;85.02
60715;BME280;46564;53.096;8.246;2023-02-14T17:29:57;103005.19;;;5.61;85.86
60715;BME280;46564;53.096;8.246;2023-02-14T17:34:59;102991.53;;;5.40;86.02
60715;BME280;46564;53.096;8.246;2023-02-14T17:40:04;102992.66;;;5.20;86.34
60715;BME280;46564;53.096;8.246;2023-02-14T17:45:07;102997.28;;;5.00;86.73
60715;BME280;46564;53.096;8.246;2023-02-14T17:50:09;102979.50;;;4.83;86.85
60715;BME280;46564;53.096;8.246;2023-02-14T17:55:11;102984.31;;;4.66;87.27
60715;BME280;46564;53.096;8.246;2023-02-14T18:00:13;102989.56;;;4.44;87.48
60715;BME280;46564;53.096;8.246;2023-02-14T18:05:16;102996.94;;;4.28;87.95
60715;BME280;46564;53.096;8.246;2023-02-14T18:10:18;103001.81;;;4.13;88.45
60715;BME280;46564;53.096;8.246;2023-02-14T18:15:19;103002.44;;;3.98;88.78
60715;BME280;46564;53.096;8.246;2023-02-14T18:20:21;102998.34;;;3.80;89.05
60715;BME280;46564;53.096;8.246;2023-02-14T18:25:22;102999.72;;;3.64;89.30
60715;BME280;46564;53.096;8.246;2023-02-14T18:30:24;102987.03;;;3.57;89.66
60715;BME280;46564;53.096;8.246;2023-02-14T18:35:26;102982.69;;;3.46;89.59
60715;BME280;46564;53.096;8.246;2023-02-14T18:40:27;102977.81;;;3.28;89.95
60715;BME280;46564;53.096;8.246;2023-02-14T18:45:29;102991.97;;;3.11;89.97
60715;BME280;46564;53.096;8.246;2023-02-14T18:50:32;102991.97;;;3.11;89.97
60715;BME280;46564;53.096;8.246;2023-02-14T18:55:36;102979.81;;;2.90;90.52
60715;BME280;46564;53.096;8.246;2023-02-14T19:00:37;102981.75;;;2.72;90.51
60715;BME280;46564;53.096;8.246;2023-02-14T19:05:39;102980.09;;;2.62;90.50
60715;BME280;46564;53.096;8.246;2023-02-14T19:10:40;102973.91;;;2.50;90.74
60715;BME280;46564;53.096;8.246;2023-02-14T19:15:42;102972.19;;;2.40;90.95
60715;BME280;46564;53.096;8.246;2023-02-14T19:20:43;102969.84;;;2.33;91.27
60715;BME280;46564;53.096;8.246;2023-02-14T19:25:45;102964.03;;;2.25;91.38
60715;BME280;46564;53.096;8.246;2023-02-14T19:30:46;102958.22;;;2.17;91.19
60715;BME280;46564;53.096;8.246;2023-02-14T19:35:58;102956.78;;;2.10;91.76
60715;BME280;46564;53.096;8.246;2023-02-14T19:41:00;102947.81;;;1.97;91.78
60715;BME280;46564;53.096;8.246;2023-02-14T19:46:02;102943.81;;;1.90;92.04
60715;BME280;46564;53.096;8.246;2023-02-14T19:51:04;102934.63;;;1.83;92.01
60715;BME280;46564;53.096;8.246;2023-02-14T19:56:06;102933.28;;;1.68;91.94
60715;BME280;46564;53.096;8.246;2023-02-14T20:01:35;102926.06;;;1.64;92.26
60715;BME280;46564;53.096;8.246;2023-02-14T20:06:36;102923.69;;;1.56;92.43
60715;BME280;46564;53.096;8.246;2023-02-14T20:11:46;102907.41;;;1.47;92.50
60715;BME280;46564;53.096;8.246;2023-02-14T20:16:52;102908.75;;;1.33;92.63
60715;BME280;46564;53.096;8.246;2023-02-14T20:21:54;102902.28;;;1.28;92.70
60715;BME280;46564;53.096;8.246;2023-02-14T20:26:56;102897.97;;;1.18;92.73
60715;BME280;46564;53.096;8.246;2023-02-14T20:31:58;102891.50;;;1.13;92.75
60715;BME280;46564;53.096;8.246;2023-02-14T20:37:08;102889.13;;;1.06;92.80
60715;BME280;46564;53.096;8.246;2023-02-14T20:42:11;102886.63;;;0.97;93.15
60715;BME280;46564;53.096;8.246;2023-02-14T20:47:12;102892.19;;;0.92;92.92
60715;BME280;46564;53.096;8.246;2023-02-14T20:52:14;102895.59;;;0.82;92.72
60715;BME280;46564;53.096;8.246;2023-02-14T20:57:18;102890.00;;;0.77;92.99
60715;BME280;46564;53.096;8.246;2023-02-14T21:02:19;102880.94;;;0.72;93.32
60715;BME280;46564;53.096;8.246;2023-02-14T21:07:21;102887.56;;;0.60;93.20
60715;BME280;46564;53.096;8.246;2023-02-14T21:12:22;102884.44;;;0.53;93.36
60715;BME280;46564;53.096;8.246;2023-02-14T21:17:24;102878.56;;;0.46;93.15
60715;BME280;46564;53.096;8.246;2023-02-14T21:22:26;102873.75;;;0.40;93.71
60715;BME280;46564;53.096;8.246;2023-02-14T21:27:27;57128.34;;;-147.53;100.00
60715;BME280;46564;53.096;8.246;2023-02-14T21:32:29;57128.34;;;-147.53;100.00
60715;BME280;46564;53.096;8.246;2023-02-14T21:37:31;57128.34;;;-147.53;100.00
60715;BME280;46564;53.096;8.246;2023-02-14T21:42:32;57128.34;;;-147.53;100.00
60715;BME280;46564;53.096;8.246;2023-02-14T21:47:37;57128.34;;;-147.53;100.00
60715;BME280;46564;53.096;8.246;2023-02-14T21:52:40;57128.34;;;-147.53;100.00
60715;BME280;46564;53.096;8.246;2023-02-14T21:57:41;57128.34;;;-147.53;100.00
60715;BME280;46564;53.096;8.246;2023-02-14T22:02:43;102875.72;;;-0.04;94.00
60715;BME280;46564;53.096;8.246;2023-02-14T22:07:44;102864.06;;;-0.09;94.12
60715;BME280;46564;53.096;8.246;2023-02-14T22:12:46;102868.50;;;-0.17;93.96
60715;BME280;46564;53.096;8.246;2023-02-14T22:17:47;102867.16;;;-0.22;94.06
60715;BME280;46564;53.096;8.246;2023-02-14T22:22:49;102865.66;;;-0.29;94.24
60715;BME280;46564;53.096;8.246;2023-02-14T22:27:50;102858.16;;;-0.36;94.28
60715;BME280;46564;53.096;8.246;2023-02-14T22:32:52;102859.38;;;-0.41;93.94
60715;BME280;46564;53.096;8.246;2023-02-14T22:37:53;102854.88;;;-0.52;94.17
60715;BME280;46564;53.096;8.246;2023-02-14T22:42:55;102856.38;;;-0.55;94.40
60715;BME280;46564;53.096;8.246;2023-02-14T22:47:58;102859.41;;;-0.59;93.99
60715;BME280;46564;53.096;8.246;2023-02-14T22:53:00;102853.09;;;-0.62;94.21
60715;BME280;46564;53.096;8.246;2023-02-14T22:58:02;57128.34;;;-147.53;100.00
60715;BME280;46564;53.096;8.246;2023-02-14T23:03:04;57128.34;;;-147.53;100.00
60715;BME280;46564;53.096;8.246;2023-02-14T23:08:05;57128.34;;;-147.53;100.00
60715;BME280;46564;53.096;8.246;2023-02-14T23:13:08;57128.34;;;-147.53;100.00
60715;BME280;46564;53.096;8.246;2023-02-14T23:18:28;57128.34;;;-147.53;100.00
60715;BME280;46564;53.096;8.246;2023-02-14T23:23:49;57128.34;;;-147.53;100.00
60715;BME280;46564;53.096;8.246;2023-02-14T23:28:50;57128.34;;;-147.53;100.00
60715;BME280;46564;53.096;8.246;2023-02-14T23:33:52;57128.34;;;-147.53;100.00
60715;BME280;46564;53.096;8.246;2023-02-14T23:38:53;57128.34;;;-147.53;100.00
60715;BME280;46564;53.096;8.246;2023-02-14T23:43:55;57128.34;;;-147.53;100.00
60715;BME280;46564;53.096;8.246;2023-02-14T23:48:56;57128.34;;;-147.53;100.00
60715;BME280;46564;53.096;8.246;2023-02-14T23:53:58;57128.34;;;-147.53;100.00
60715;BME280;46564;53.096;8.246;2023-02-14T23:59:00;57128.34;;;-147.53;100.00
